Time;durP1;ratioP1;P1;durP2;ratioP2;P2;SDS_P1;SDS_P2;PMS_P1;PMS_P2;Temp;Humidity;BMP_temperature;BMP_pressure;BME280_temperature;BME280_humidity;BME280_pressure;Samples;Min_cycle;Max_cycle;Signal;HPM_P1;HPM_P2
2022/03/30 00:01:31;;;;;;;27.98;10.25;;;;;;;10.96;47.51;100750.78;4952729;28;124114;-61
2022/03/30 00:03:58;;;;;;;21.70;10.00;;;;;;;10.92;47.62;100754.53;4935147;28;123886;-61
2022/03/30 00:06:26;;;;;;;23.15;10.32;;;;;;;10.87;47.75;100752.09;4951500;28;114397;-61
2022/03/30 00:08:53;;;;;;;23.33;10.35;;;;;;;10.82;47.78;100743.50;4952542;28;114429;-61
2022/03/30 00:11:20;;;;;;;27.10;10.80;;;;;;;10.77;47.69;100744.66;4951524;28;124785;-61
2022/03/30 00:13:47;;;;;;;28.40;10.73;;;;;;;10.71;47.58;100749.31;4935424;28;122798;-61
2022/03/30 00:16:15;;;;;;;27.90;10.82;;;;;;;10.65;47.81;100746.97;4950371;28;115353;-61
2022/03/30 00:18:42;;;;;;;22.67;10.27;;;;;;;10.59;47.85;100746.41;4951251;28;115458;-61
2022/03/30 00:21:09;;;;;;;24.83;10.70;;;;;;;10.52;47.82;100735.22;4949906;28;124682;-61
2022/03/30 00:23:36;;;;;;;26.10;10.98;;;;;;;10.45;48.33;100733.78;4949212;28;124619;-61
2022/03/30 00:26:04;;;;;;;25.85;10.60;;;;;;;10.36;48.08;100744.78;4917444;28;113060;-61
2022/03/30 00:28:31;;;;;;;23.58;10.88;;;;;;;10.27;48.06;100746.91;4952764;28;113882;-60
2022/03/30 00:30:59;;;;;;;27.95;10.25;;;;;;;10.20;47.89;100745.47;4951747;28;123974;-59
2022/03/30 00:33:26;;;;;;;28.95;11.00;;;;;;;10.12;48.42;100742.31;4951765;28;124599;-59
2022/03/30 00:35:53;;;;;;;26.90;10.55;;;;;;;10.05;48.08;100730.28;4949012;28;114332;-59
2022/03/30 00:38:21;;;;;;;25.35;10.40;;;;;;;10.01;48.68;100734.00;4951867;28;114171;-59
2022/03/30 00:40:48;;;;;;;25.20;10.80;;;;;;;9.99;48.61;100719.97;4949301;28;124440;-59
2022/03/30 00:43:15;;;;;;;26.15;10.73;;;;;;;9.98;48.64;100723.53;4934878;28;122921;-60
2022/03/30 00:45:43;;;;;;;26.63;10.32;;;;;;;9.93;48.67;100727.25;4952645;28;114119;-59
2022/03/30 00:48:10;;;;;;;24.20;10.40;;;;;;;9.89;48.59;100720.38;4949044;28;114059;-59
2022/03/30 00:50:38;;;;;;;21.35;10.45;;;;;;;9.85;48.73;100729.38;4949341;28;124014;-60
2022/03/30 00:53:05;;;;;;;25.85;10.40;;;;;;;9.80;48.72;100720.78;4951332;28;124551;-60
2022/03/30 00:55:34;;;;;;;24.42;10.40;;;;;;;9.77;48.59;100720.91;4950324;28;114247;-60
2022/03/30 00:58:02;;;;;;;22.60;10.50;;;;;;;9.73;48.84;100708.75;4935406;28;113128;-60
2022/03/30 01:00:29;;;;;;;27.83;10.77;;;;;;;9.68;48.76;100721.31;4948991;28;124215;-60
2022/03/30 01:02:57;;;;;;;29.13;10.93;;;;;;;9.65;49.21;100716.16;4934247;28;123574;-60
2022/03/30 01:05:24;;;;;;;25.92;10.57;;;;;;;9.62;49.25;100711.00;4950522;28;115518;-60
2022/03/30 01:07:52;;;;;;;26.77;10.63;;;;;;;9.61;49.32;100711.94;4949818;28;115238;-60
2022/03/30 01:10:19;;;;;;;27.70;11.10;;;;;;;9.59;49.30;100711.13;4928815;28;124473;-62
2022/03/30 01:12:48;;;;;;;30.33;10.80;;;;;;;9.58;49.35;100704.97;4948513;28;124063;-60
2022/03/30 01:15:15;;;;;;;26.80;10.23;;;;;;;9.55;49.12;100710.41;4950941;28;114785;-60
2022/03/30 01:17:42;;;;;;;26.35;10.80;;;;;;;9.53;49.39;100697.25;4947315;28;113799;-60
2022/03/30 01:20:11;;;;;;;24.42;10.60;;;;;;;9.51;49.20;100704.41;4951381;28;125033;-61
2022/03/30 01:22:39;;;;;;;22.65;10.05;;;;;;;9.50;49.20;100710.59;4949390;28;124183;-60
2022/03/30 01:25:07;;;;;;;24.58;10.48;;;;;;;9.49;49.24;100706.25;4950253;28;114881;-61
2022/03/30 01:27:35;;;;;;;26.17;10.88;;;;;;;9.46;49.56;100701.09;4950695;28;114654;-61
2022/03/30 01:33:07;;;;;;;26.83;11.35;;;;;;;9.36;49.22;100699.75;4948824;28;124524;-60
2022/03/30 01:35:35;;;;;;;26.42;10.98;;;;;;;9.32;49.56;100698.16;4950361;28;114090;-61
2022/03/30 01:38:03;;;;;;;26.50;11.10;;;;;;;9.26;49.37;100694.00;4932275;28;113847;-61
2022/03/30 01:40:30;;;;;;;23.83;10.15;;;;;;;9.21;49.26;100689.81;4948354;28;124127;-60
2022/03/30 01:42:58;;;;;;;27.60;11.60;;;;;;;9.15;49.30;100686.53;4950128;28;124564;-61
2022/03/30 01:45:25;;;;;;;30.25;11.38;;;;;;;9.10;49.66;100688.50;4951885;28;114717;-61
2022/03/30 01:47:57;;;;;;;27.40;12.45;;;;;;;9.04;49.84;100678.19;4952902;28;113691;-61
2022/03/30 01:50:26;;;;;;;25.73;11.20;;;;;;;8.99;49.58;100680.16;4948863;28;124062;-61
2022/03/30 01:52:55;;;;;;;29.20;11.15;;;;;;;8.94;49.81;100676.84;4950237;28;123813;-61
2022/03/30 01:55:22;;;;;;;29.40;11.13;;;;;;;8.91;49.89;100682.22;4948230;28;115161;-61
2022/03/30 01:57:50;;;;;;;32.80;11.48;;;;;;;8.89;50.06;100678.81;4951715;28;115254;-61
2022/03/30 02:00:18;;;;;;;27.52;11.15;;;;;;;8.86;49.80;100678.94;4948063;28;123895;-61
2022/03/30 02:02:46;;;;;;;24.40;10.15;;;;;;;8.84;49.85;100670.22;4949228;28;123841;-61
2022/03/30 02:05:16;;;;;;;26.88;10.30;;;;;;;8.81;49.88;100671.19;4930750;28;114086;-61
2022/03/30 02:07:43;;;;;;;28.65;11.23;;;;;;;8.82;50.05;100666.78;4927701;28;113901;-61
2022/03/30 02:10:11;;;;;;;29.25;10.98;;;;;;;8.81;50.35;100665.06;4931607;28;123596;-61
2022/03/30 02:12:39;;;;;;;26.70;11.18;;;;;;;8.81;50.17;100654.50;4950976;28;124364;-61
2022/03/30 02:15:09;;;;;;;27.10;10.68;;;;;;;8.80;50.28;100658.94;4948796;28;114873;-61
2022/03/30 02:17:38;;;;;;;29.15;11.07;;;;;;;8.77;50.16;100665.16;4949928;28;114387;-61
2022/03/30 02:20:06;;;;;;;23.23;10.50;;;;;;;8.76;50.08;100658.19;4946803;28;124075;-61
2022/03/30 02:22:34;;;;;;;29.42;11.25;;;;;;;8.73;50.17;100646.88;4950662;28;123692;-61
2022/03/30 02:25:01;;;;;;;25.95;11.20;;;;;;;8.70;50.42;100645.25;4951174;28;114763;-61
2022/03/30 02:27:28;;;;;;;24.83;10.75;;;;;;;8.70;50.52;100641.72;4951607;28;114268;-61
2022/03/30 02:29:56;;;;;;;26.05;11.90;;;;;;;8.68;50.34;100639.16;4948546;28;124441;-62
2022/03/30 02:32:23;;;;;;;33.25;11.52;;;;;;;8.67;50.22;100648.00;4945682;28;124664;-62
2022/03/30 02:34:50;;;;;;;26.73;10.73;;;;;;;8.67;50.22;100641.88;4934092;28;113415;-62
2022/03/30 02:37:18;;;;;;;26.27;11.35;;;;;;;8.66;50.33;100638.34;4951298;28;113810;-61
2022/03/30 02:39:46;;;;;;;28.35;11.68;;;;;;;8.67;50.46;100632.16;4947442;28;123983;-61
2022/03/30 02:42:13;;;;;;;24.35;11.18;;;;;;;8.68;50.42;100638.28;4948749;28;124448;-62
2022/03/30 02:44:41;;;;;;;25.10;11.40;;;;;;;8.68;50.39;100628.59;4948981;28;115854;-62
2022/03/30 02:47:08;;;;;;;24.75;10.98;;;;;;;8.69;50.62;100630.31;4948743;28;115470;-62
2022/03/30 02:49:36;;;;;;;30.15;10.90;;;;;;;8.69;50.41;100624.19;4950206;28;124491;-61
2022/03/30 02:52:04;;;;;;;24.73;10.40;;;;;;;8.68;50.73;100623.31;4928884;28;124047;-61
2022/03/30 02:54:31;;;;;;;25.58;10.85;;;;;;;8.69;50.42;100630.31;4932340;28;113316;-60
2022/03/30 02:56:59;;;;;;;27.98;11.38;;;;;;;8.69;50.66;100625.03;4931039;28;114091;-60
2022/03/30 02:59:27;;;;;;;29.50;10.70;;;;;;;8.69;50.52;100618.91;4947663;28;123901;-60
2022/03/30 03:01:54;;;;;;;26.77;10.57;;;;;;;8.70;50.51;100610.91;4948976;28;124363;-60
2022/03/30 03:04:22;;;;;;;30.55;10.77;;;;;;;8.69;50.49;100609.19;4950831;28;117166;-60
2022/03/30 03:06:50;;;;;;;30.05;11.48;;;;;;;8.70;50.43;100616.19;4950643;28;114689;-60
2022/03/30 03:09:17;;;;;;;30.45;11.43;;;;;;;8.67;50.36;100621.59;4947856;28;124197;-60
2022/03/30 03:11:44;;;;;;;25.75;10.63;;;;;;;8.63;50.10;100617.38;4928612;28;124928;-60
2022/03/30 03:14:11;;;;;;;31.90;12.05;;;;;;;8.61;50.73;100611.28;4950529;28;114699;-60
2022/03/30 03:16:39;;;;;;;34.05;11.45;;;;;;;8.56;50.77;100605.34;4932664;28;112092;-60
2022/03/30 03:19:06;;;;;;;28.10;11.63;;;;;;;8.53;50.65;100602.81;4947778;28;124092;-60
2022/03/30 03:21:33;;;;;;;26.67;11.38;;;;;;;8.50;50.74;100610.88;4947314;28;124268;-60
2022/03/30 03:24:00;;;;;;;29.27;11.98;;;;;;;8.47;50.72;100608.34;4950034;28;114559;-60
2022/03/30 03:26:27;;;;;;;30.73;11.48;;;;;;;8.44;50.84;100613.72;4951779;28;113871;-60
2022/03/30 03:28:55;;;;;;;35.45;12.55;;;;;;;8.41;51.00;100603.28;4951295;28;124029;-60
2022/03/30 03:31:22;;;;;;;25.92;11.40;;;;;;;8.35;50.64;100599.97;4947707;28;124487;-61
2022/03/30 03:33:50;;;;;;;28.70;11.27;;;;;;;8.34;51.20;100603.53;4953296;28;115677;-61
2022/03/30 03:36:20;;;;;;;33.83;11.93;;;;;;;8.31;50.99;100593.09;4952957;28;115579;-61
2022/03/30 03:38:47;;;;;;;27.55;12.35;;;;;;;8.30;51.06;100591.34;4947801;28;124402;-61
2022/03/30 03:41:14;;;;;;;26.95;11.07;;;;;;;8.28;51.06;100590.56;4933463;28;123693;-61
2022/03/30 03:43:42;;;;;;;33.33;11.82;;;;;;;8.27;51.05;100590.63;4952999;28;114604;-61
2022/03/30 03:46:09;;;;;;;29.02;11.52;;;;;;;8.24;51.31;100591.59;4951650;28;114265;-61
2022/03/30 03:48:36;;;;;;;31.23;11.45;;;;;;;8.21;51.15;100586.44;4950786;28;123864;-61
2022/03/30 03:51:04;;;;;;;29.35;11.27;;;;;;;8.21;51.27;100597.00;4948690;28;123177;-61
2022/03/30 03:53:31;;;;;;;28.48;11.70;;;;;;;8.19;51.00;100593.56;4933075;28;113857;-61
2022/03/30 03:55:58;;;;;;;27.50;12.15;;;;;;;8.15;51.08;100591.97;4953386;28;114305;-61
2022/03/30 03:58:25;;;;;;;24.35;11.05;;;;;;;8.12;50.99;100592.09;4947638;28;125182;-61
2022/03/30 04:00:52;;;;;;;30.00;11.88;;;;;;;8.08;51.00;100579.94;4952824;28;124216;-62
2022/03/30 04:03:20;;;;;;;26.17;10.93;;;;;;;8.04;51.03;100578.34;4952106;28;114121;-61
2022/03/30 04:05:47;;;;;;;32.30;11.35;;;;;;;8.02;51.26;100580.19;4950767;28;114430;-60
2022/03/30 04:08:15;;;;;;;32.85;11.80;;;;;;;7.97;51.18;100578.59;4933094;28;124620;-61
2022/03/30 04:10:42;;;;;;;30.17;12.05;;;;;;;7.94;51.29;100578.69;4932374;28;124535;-61
2022/03/30 04:13:09;;;;;;;30.75;12.18;;;;;;;7.89;51.29;100566.59;4952174;28;114395;-61
2022/03/30 04:15:38;;;;;;;27.13;11.32;;;;;;;7.84;51.25;100566.78;4951155;28;114135;-61
2022/03/30 04:18:07;;;;;;;29.83;11.27;;;;;;;7.81;51.32;100574.81;4948607;28;124386;-61
2022/03/30 04:20:36;;;;;;;30.60;12.00;;;;;;;7.75;51.42;100567.13;4949650;28;123890;-60
2022/03/30 04:23:03;;;;;;;29.38;10.68;;;;;;;7.72;51.51;100567.25;4951291;28;115672;-61
2022/03/30 04:25:31;;;;;;;24.65;10.27;;;;;;;7.70;51.67;100564.66;4950542;28;115878;-61
2022/03/30 04:27:58;;;;;;;26.65;11.00;;;;;;;7.66;51.24;100567.47;4932954;28;123723;-61
2022/03/30 04:30:25;;;;;;;28.52;10.88;;;;;;;7.63;51.43;100570.22;4947062;28;124076;-61
2022/03/30 04:32:53;;;;;;;29.77;11.07;;;;;;;7.58;51.64;100571.25;4951165;28;114700;-61
2022/03/30 04:35:26;;;;;;;30.17;11.32;;;;;;;7.55;51.66;100566.13;4934151;28;114067;-61
2022/03/30 04:37:54;;;;;;;26.77;11.77;;;;;;;7.52;51.73;100570.63;4949878;28;123796;-61
2022/03/30 04:40:22;;;;;;;26.20;10.82;;;;;;;7.49;51.42;100571.59;4951913;28;124524;-61
2022/03/30 04:42:50;;;;;;;30.20;11.48;;;;;;;7.47;51.65;100572.56;4950899;28;114853;-61
2022/03/30 04:45:18;;;;;;;30.35;11.15;;;;;;;7.42;51.73;100570.09;4950877;28;113869;-62
2022/03/30 04:47:45;;;;;;;26.63;10.50;;;;;;;7.38;51.65;100565.84;4949446;28;124728;-61
2022/03/30 04:50:13;;;;;;;28.70;11.55;;;;;;;7.34;51.73;100561.63;4948577;28;123757;-61
2022/03/30 04:52:41;;;;;;;28.45;11.50;;;;;;;7.31;51.96;100577.53;4950161;28;114470;-62
2022/03/30 04:55:10;;;;;;;27.23;11.23;;;;;;;7.27;51.87;100566.25;4935245;28;114504;-61
2022/03/30 04:57:38;;;;;;;26.40;11.18;;;;;;;7.27;52.00;100570.66;4950370;28;124699;-61
2022/03/30 05:00:08;;;;;;;22.55;10.25;;;;;;;7.25;52.17;100562.78;4947593;28;124564;-61
2022/03/30 05:02:36;;;;;;;27.80;10.88;;;;;;;7.26;51.95;100568.94;4950015;28;113953;-61
2022/03/30 05:05:05;;;;;;;30.30;11.32;;;;;;;7.22;51.95;100569.03;4950238;28;113968;-61
2022/03/30 05:07:33;;;;;;;26.73;10.18;;;;;;;7.21;52.30;100577.88;4951867;28;124538;-59
2022/03/30 05:10:00;;;;;;;30.60;11.80;;;;;;;7.20;52.08;100575.28;4933414;28;123606;-60
2022/03/30 05:12:27;;;;;;;33.45;11.43;;;;;;;7.16;52.08;100574.53;4948540;28;115680;-60
2022/03/30 05:14:54;;;;;;;30.35;10.88;;;;;;;7.14;51.91;100570.22;4948407;28;115793;-59
2022/03/30 05:17:21;;;;;;;28.25;11.57;;;;;;;7.10;52.38;100574.75;4932879;28;123665;-59
2022/03/30 05:19:49;;;;;;;32.40;11.68;;;;;;;7.07;52.14;100580.13;4947894;28;124153;-59
2022/03/30 05:22:16;;;;;;;32.42;11.80;;;;;;;7.04;52.20;100580.22;4949094;28;114527;-59
2022/03/30 05:24:44;;;;;;;30.77;11.60;;;;;;;7.01;52.24;100581.19;4949900;28;114196;-60
2022/03/30 05:27:11;;;;;;;28.08;11.35;;;;;;;6.98;52.43;100573.38;4950080;28;124223;-59
2022/03/30 05:29:38;;;;;;;31.42;12.55;;;;;;;6.98;52.49;100569.91;4949498;28;123680;-59
2022/03/30 05:32:06;;;;;;;33.75;11.52;;;;;;;6.96;52.48;100566.47;4946885;28;114113;-60
2022/03/30 05:34:41;;;;;;;32.50;12.17;;;;;;;6.96;52.62;100563.84;4952032;28;113993;-60
2022/03/30 05:37:08;;;;;;;32.65;11.27;;;;;;;6.94;52.33;100557.78;4949454;28;125061;-60
2022/03/30 05:39:39;;;;;;;27.77;10.98;;;;;;;6.94;52.38;100563.03;4947545;28;124054;-60
2022/03/30 05:42:08;;;;;;;28.83;11.27;;;;;;;6.93;52.41;100550.75;4933696;28;112989;-60
2022/03/30 05:44:37;;;;;;;29.85;11.23;;;;;;;6.92;52.73;100554.31;4951934;28;114034;-61
2022/03/30 05:47:06;;;;;;;29.35;11.18;;;;;;;6.92;52.58;100549.06;4934293;28;123181;-61
2022/03/30 05:49:35;;;;;;;33.92;12.02;;;;;;;6.91;52.69;100542.06;4948343;28;123995;-60
2022/03/30 05:52:03;;;;;;;30.65;12.02;;;;;;;6.92;52.56;100546.44;4950066;28;114010;-60
2022/03/30 05:54:34;;;;;;;28.05;11.15;;;;;;;6.94;52.65;100547.25;4951787;28;114146;-60
2022/03/30 05:57:05;;;;;;;29.33;11.38;;;;;;;6.94;52.69;100547.25;4951283;28;124223;-60
2022/03/30 05:59:38;;;;;;;28.10;11.48;;;;;;;6.98;53.05;100548.84;4935000;28;123269;-60
2022/03/30 06:02:08;;;;;;;29.63;10.80;;;;;;;7.00;52.69;100552.28;4946081;28;115255;-60
2022/03/30 06:04:37;;;;;;;33.90;11.05;;;;;;;7.01;52.71;100544.34;4952478;28;114998;-59
2022/03/30 06:07:04;;;;;;;27.60;11.27;;;;;;;7.05;53.27;100550.34;4950330;28;124458;-60
2022/03/30 06:09:33;;;;;;;32.25;11.65;;;;;;;7.09;52.99;100551.97;4913389;28;123116;-60
2022/03/30 06:12:15;;;;;;;27.73;10.88;;;;;;;7.13;53.11;100548.28;4930455;28;113293;-60
2022/03/30 06:14:46;;;;;;;36.67;11.68;;;;;;;7.14;52.98;100555.28;4948329;28;114532;-60
2022/03/30 06:17:14;;;;;;;29.33;11.57;;;;;;;7.18;53.06;100556.06;4949412;28;125057;-59
2022/03/30 06:19:41;;;;;;;32.05;11.10;;;;;;;7.21;52.86;100562.06;4949149;28;124711;-60
2022/03/30 06:22:08;;;;;;;32.30;11.55;;;;;;;7.25;53.13;100562.78;4930914;28;114262;-60
2022/03/30 06:24:37;;;;;;;26.73;11.32;;;;;;;7.28;53.05;100556.56;4948500;28;113096;-60
2022/03/30 06:27:06;;;;;;;29.85;11.27;;;;;;;7.34;53.13;100551.06;4945568;28;123926;-60
2022/03/30 06:29:34;;;;;;;26.50;11.98;;;;;;;7.39;53.28;100554.41;4949042;28;124758;-60
2022/03/30 06:32:03;;;;;;;31.52;12.32;;;;;;;7.48;53.42;100553.19;4950430;28;114605;-62
2022/03/30 06:34:30;;;;;;;29.52;11.02;;;;;;;7.56;53.30;100556.44;4933814;28;113217;-60
2022/03/30 06:36:58;;;;;;;31.35;11.35;;;;;;;7.64;53.21;100559.63;4951582;28;124332;-61
2022/03/30 06:39:25;;;;;;;30.10;11.70;;;;;;;7.72;53.55;100556.69;4948950;28;125435;-59
2022/03/30 06:41:53;;;;;;;28.63;11.25;;;;;;;7.82;53.46;100563.34;4947738;28;114099;-60
2022/03/30 06:44:20;;;;;;;27.83;11.27;;;;;;;7.90;53.16;100561.28;4951881;28;114082;-60
2022/03/30 06:46:47;;;;;;;25.08;10.63;;;;;;;7.97;53.60;100557.47;4929500;28;124464;-60
2022/03/30 06:49:14;;;;;;;27.77;11.57;;;;;;;8.05;53.36;100566.88;4931600;28;123709;-61
2022/03/30 06:51:42;;;;;;;28.65;10.85;;;;;;;8.12;53.52;100565.72;4933729;28;115800;-61
2022/03/30 06:54:09;;;;;;;25.65;11.15;;;;;;;8.21;53.55;100567.13;4950790;28;115804;-61
2022/03/30 06:56:36;;;;;;;31.33;11.35;;;;;;;8.29;53.14;100562.44;4948607;28;124148;-61
2022/03/30 06:59:03;;;;;;;29.58;11.40;;;;;;;8.37;53.53;100563.81;4933526;28;123003;-61
2022/03/30 07:01:34;;;;;;;23.55;10.95;;;;;;;8.47;53.37;100566.13;4948501;28;114819;-61
2022/03/30 07:04:03;;;;;;;29.10;11.43;;;;;;;8.55;52.93;100564.00;4950718;28;114875;-61
2022/03/30 07:06:30;;;;;;;30.05;11.40;;;;;;;8.63;53.02;100567.22;4950368;28;124173;-61
2022/03/30 07:11:43;;;;;;;26.85;10.82;;;;;;;8.84;53.14;100559.31;4950220;28;113759;-61
2022/03/30 07:14:11;;;;;;;29.42;10.45;;;;;;;8.95;53.31;100567.63;4951688;28;114120;-61
2022/03/30 07:16:38;;;;;;;27.13;10.73;;;;;;;9.07;53.48;100564.44;4951043;28;124132;-61
2022/03/30 07:19:06;;;;;;;27.58;10.68;;;;;;;9.20;53.13;100561.28;4948979;28;124056;-61
2022/03/30 07:21:33;;;;;;;27.15;10.43;;;;;;;9.33;53.00;100558.03;4933697;28;113907;-62
2022/03/30 07:24:00;;;;;;;31.63;11.15;;;;;;;9.44;53.02;100557.56;4951841;28;114720;-61
2022/03/30 07:26:28;;;;;;;26.25;11.32;;;;;;;9.57;52.85;100559.63;4949300;28;124624;-61
2022/03/30 07:28:55;;;;;;;25.60;10.18;;;;;;;9.67;52.74;100558.31;4951433;28;124584;-61
2022/03/30 07:31:23;;;;;;;25.63;10.68;;;;;;;9.78;52.96;100563.94;4933617;28;113597;-61
2022/03/30 07:33:50;;;;;;;24.02;10.38;;;;;;;9.89;52.92;100556.38;4950957;28;114332;-62
2022/03/30 07:36:17;;;;;;;28.38;10.95;;;;;;;10.04;52.51;100559.22;4947152;28;124297;-61
2022/03/30 07:38:44;;;;;;;27.10;10.30;;;;;;;10.15;52.92;100554.25;4947805;28;124516;-61
2022/03/30 07:41:12;;;;;;;23.02;10.23;;;;;;;10.27;52.42;100545.75;4943227;28;115157;-61
2022/03/30 07:43:39;;;;;;;27.38;10.02;;;;;;;10.38;52.42;100549.69;4913715;28;115368;-61
2022/03/30 07:46:08;;;;;;;22.38;9.43;;;;;;;10.46;52.48;100540.44;4913215;28;123155;-61
2022/03/30 07:48:35;;;;;;;22.80;9.50;;;;;;;10.57;52.34;100537.25;4928520;28;124243;-61
2022/03/30 07:51:03;;;;;;;19.20;8.63;;;;;;;10.66;51.89;100539.44;4928443;28;114162;-61
2022/03/30 07:53:30;;;;;;;22.67;8.88;;;;;;;10.76;52.10;100541.63;4930546;28;114844;-61
2022/03/30 07:55:58;;;;;;;18.25;8.52;;;;;;;10.83;51.67;100543.91;4930794;28;124346;-61
2022/03/30 07:58:26;;;;;;;20.65;8.82;;;;;;;10.93;51.59;100541.63;4947130;28;125801;-61
2022/03/30 08:00:53;;;;;;;23.60;9.07;;;;;;;11.04;51.75;100541.94;4947820;28;114440;-61
2022/03/30 08:03:20;;;;;;;20.25;9.38;;;;;;;11.15;51.79;100544.03;4950392;28;114091;-61
2022/03/30 08:05:48;;;;;;;18.35;8.13;;;;;;;11.25;51.22;100537.28;4948861;28;124553;-61
2022/03/30 08:08:15;;;;;;;19.90;9.30;;;;;;;11.32;51.16;100535.19;4932158;28;124820;-61
2022/03/30 08:10:42;;;;;;;27.17;8.82;;;;;;;11.37;50.89;100538.44;4949735;28;114773;-61
2022/03/30 08:13:12;;;;;;;18.17;8.00;;;;;;;11.46;50.99;100543.25;4952284;28;113784;-61
2022/03/30 08:15:41;;;;;;;16.45;8.00;;;;;;;11.50;50.73;100544.78;4951197;28;123797;-61
2022/03/30 08:18:08;;;;;;;21.55;7.63;;;;;;;11.56;50.52;100548.06;4951120;28;124280;-61
2022/03/30 08:23:22;;;;;;;22.70;8.93;;;;;;;11.67;50.33;100543.03;4952723;28;113955;-60
2022/03/30 08:25:49;;;;;;;16.48;8.15;;;;;;;11.71;49.84;100536.59;4953629;28;123801;-60
2022/03/30 08:28:16;;;;;;;24.17;8.40;;;;;;;11.75;50.03;100548.75;4951014;28;124589;-61
2022/03/30 08:30:44;;;;;;;21.10;8.63;;;;;;;11.82;49.82;100536.03;4950143;28;115160;-61
2022/03/30 08:33:11;;;;;;;20.55;8.38;;;;;;;11.90;50.09;100540.94;4952251;28;115144;-61
2022/03/30 08:35:39;;;;;;;21.25;8.82;;;;;;;11.94;49.66;100537.16;4953399;28;124479;-61
2022/03/30 08:38:06;;;;;;;21.77;8.77;;;;;;;11.98;49.73;100533.41;4936061;28;122668;-61
2022/03/30 08:40:34;;;;;;;19.15;9.07;;;;;;;12.02;49.50;100533.16;4950572;28;114601;-62
2022/03/30 08:43:01;;;;;;;21.77;8.68;;;;;;;12.05;49.42;100534.78;4952154;28;113968;-61
2022/03/30 08:45:28;;;;;;;18.90;8.98;;;;;;;12.11;49.48;100534.44;4952777;28;124407;-61
2022/03/30 08:47:56;;;;;;;18.45;8.50;;;;;;;12.16;49.74;100529.72;4953171;28;124286;-61
2022/03/30 08:50:23;;;;;;;21.80;8.73;;;;;;;12.25;49.60;100526.53;4950865;28;114897;-61
2022/03/30 08:52:53;;;;;;;19.15;8.75;;;;;;;12.32;49.59;100531.47;4953467;28;113545;-61
2022/03/30 08:55:20;;;;;;;17.85;8.32;;;;;;;12.41;49.34;100530.97;4950456;28;124270;-61
2022/03/30 08:57:47;;;;;;;18.73;8.75;;;;;;;12.48;49.16;100537.63;4950822;28;124364;-61
2022/03/30 09:00:19;;;;;;;16.27;8.30;;;;;;;12.52;49.02;100528.53;4950115;28;114632;-61
2022/03/30 09:02:55;;;;;;;18.05;8.73;;;;;;;12.56;49.02;100522.09;4951408;28;113941;-61
2022/03/30 09:05:26;;;;;;;20.83;8.43;;;;;;;12.60;48.84;100521.00;4950956;28;124035;-61
2022/03/30 09:08:06;;;;;;;21.90;8.73;;;;;;;12.62;48.63;100519.09;4950865;28;124333;-61
2022/03/30 09:10:35;;;;;;;19.30;9.02;;;;;;;12.69;48.83;100518.72;4950178;28;114394;-61
2022/03/30 09:13:04;;;;;;;22.33;9.25;;;;;;;12.78;48.83;100518.19;4952112;28;114015;-61
2022/03/30 09:15:34;;;;;;;20.98;8.95;;;;;;;12.86;48.83;100510.59;4950400;28;124290;-61
2022/03/30 09:18:03;;;;;;;20.75;9.02;;;;;;;12.97;49.35;100518.78;4935251;28;123118;-61
2022/03/30 09:20:39;;;;;;;20.27;8.75;;;;;;;13.09;48.81;100524.31;4950394;28;115278;-61
2022/03/30 09:23:10;;;;;;;20.70;8.95;;;;;;;13.20;48.63;100519.19;4934138;28;113743;-61
2022/03/30 09:25:48;;;;;;;19.05;8.30;;;;;;;13.29;48.56;100523.94;4952939;28;124049;-61
2022/03/30 09:28:23;;;;;;;17.38;8.00;;;;;;;13.35;48.21;100528.06;4950016;28;123733;-61
2022/03/30 09:30:51;;;;;;;20.17;9.07;;;;;;;13.35;47.82;100528.91;4950729;28;114421;-61
2022/03/30 09:33:21;;;;;;;17.85;8.32;;;;;;;13.36;47.90;100520.00;4951654;28;114341;-61
2022/03/30 09:35:49;;;;;;;16.85;8.30;;;;;;;13.38;47.85;100523.41;4952409;28;123921;-61
2022/03/30 09:38:19;;;;;;;19.45;8.15;;;;;;;13.43;48.08;100515.16;4950603;28;123839;-61
2022/03/30 09:40:51;;;;;;;14.95;7.72;;;;;;;13.52;47.63;100513.72;4929498;28;113335;-61
2022/03/30 09:43:27;;;;;;;18.88;8.80;;;;;;;13.60;47.39;100506.13;4920086;28;113143;-61
2022/03/30 09:46:08;;;;;;;15.48;8.05;;;;;;;13.68;47.48;100498.50;4952185;28;123936;-61
2022/03/30 09:48:49;;;;;;;15.95;7.82;;;;;;;13.74;47.36;100503.44;4951915;28;124345;-61
2022/03/30 09:51:18;;;;;;;19.08;8.48;;;;;;;13.78;47.25;100499.63;4934947;28;113485;-61
2022/03/30 09:53:48;;;;;;;17.83;8.38;;;;;;;13.81;47.28;100498.59;4935414;28;113927;-61
2022/03/30 09:56:21;;;;;;;18.20;8.32;;;;;;;13.83;46.91;100491.34;4951402;28;124777;-61
2022/03/30 09:58:48;;;;;;;17.77;8.50;;;;;;;13.88;46.80;100499.03;4946569;28;124005;-62
2022/03/30 10:01:21;;;;;;;21.67;9.07;;;;;;;13.92;46.73;100497.88;4948375;28;114224;-61
2022/03/30 10:03:54;;;;;;;17.60;7.85;;;;;;;13.98;46.58;100484.19;4951256;28;114645;-62
2022/03/30 10:06:24;;;;;;;20.33;8.15;;;;;;;14.04;46.55;100489.09;4947030;28;123962;-62
2022/03/30 10:08:52;;;;;;;14.77;7.53;;;;;;;14.10;46.58;100488.69;4932313;28;124240;-62
2022/03/30 10:11:21;;;;;;;16.10;8.27;;;;;;;14.20;46.62;100489.81;4947892;28;115442;-62
2022/03/30 10:13:56;;;;;;;17.42;8.25;;;;;;;14.30;46.54;100483.88;4930233;28;114696;-62
2022/03/30 10:16:37;;;;;;;15.60;7.63;;;;;;;14.41;46.64;100481.34;4949023;28;124457;-62
2022/03/30 10:19:06;;;;;;;14.23;7.60;;;;;;;14.49;46.19;100483.50;4948559;28;124700;-62
2022/03/30 10:21:39;;;;;;;16.13;7.88;;;;;;;14.53;45.96;100483.16;4933968;28;97187;-62
2022/03/30 10:24:16;;;;;;;16.83;7.78;;;;;;;14.55;45.64;100469.75;4948350;28;115326;-62
2022/03/30 10:26:50;;;;;;;15.30;8.05;;;;;;;14.55;45.30;100475.94;4948117;28;123897;-62
2022/03/30 10:29:20;;;;;;;14.00;7.25;;;;;;;14.57;45.29;100466.03;4949067;28;124040;-62
2022/03/30 10:32:11;;;;;;;16.63;7.70;;;;;;;14.59;45.39;100464.13;4945551;28;113616;-61
2022/03/30 10:35:00;;;;;;;15.35;7.85;;;;;;;14.62;44.98;100463.09;4949624;28;115225;-61
2022/03/30 10:37:33;;;;;;;17.85;7.78;;;;;;;14.64;44.94;100457.66;4944692;28;126461;-62
2022/03/30 10:40:03;;;;;;;14.73;7.72;;;;;;;14.64;44.81;100462.97;4947927;28;124595;-62
2022/03/30 10:42:53;;;;;;;16.25;7.85;;;;;;;14.64;44.77;100455.00;4950258;28;114137;-62
2022/03/30 10:45:42;;;;;;;17.00;7.70;;;;;;;14.69;45.02;100452.84;4947506;28;113952;-62
2022/03/30 10:48:11;;;;;;;14.52;7.35;;;;;;;14.80;45.05;100450.28;4944928;28;124096;-62
2022/03/30 10:50:43;;;;;;;15.23;8.18;;;;;;;14.91;45.13;100447.72;4930082;28;124310;-61
2022/03/30 10:53:29;;;;;;;14.75;7.38;;;;;;;15.02;44.91;100447.00;4949578;28;114421;-62
2022/03/30 10:56:14;;;;;;;14.13;7.25;;;;;;;15.09;44.78;100450.09;4933526;28;112785;-61
2022/03/30 10:59:00;;;;;;;16.85;7.93;;;;;;;15.14;44.58;100453.28;4947887;28;124496;-62
2022/03/30 11:01:29;;;;;;;13.43;7.68;;;;;;;15.13;44.51;100443.56;4931819;28;123810;-62
2022/03/30 11:04:10;;;;;;;14.85;7.47;;;;;;;15.12;44.45;100433.84;4949610;28;114952;-61
2022/03/30 11:06:39;;;;;;;15.07;7.80;;;;;;;15.15;44.45;100428.31;4947017;28;114836;-62
2022/03/30 11:09:08;;;;;;;15.30;7.70;;;;;;;15.17;43.96;100435.22;4946422;28;124218;-62
2022/03/30 11:11:43;;;;;;;16.42;7.80;;;;;;;15.17;44.35;100426.38;4949136;28;124111;-62
2022/03/30 11:14:31;;;;;;;;;;;;;;;15.17;44.76;100415.72;4928547;28;114333;-61
2022/03/30 11:17:05;;;;;;;16.10;7.95;;;;;;;15.25;44.69;100417.84;4949349;28;114460;-62
2022/03/30 11:19:48;;;;;;;14.00;7.53;;;;;;;15.32;44.69;100414.63;4945904;28;124210;-62
2022/03/30 11:22:36;;;;;;;17.33;8.00;;;;;;;15.41;44.29;100406.91;4914783;28;123212;-62
2022/03/30 11:25:19;;;;;;;14.27;7.47;;;;;;;15.47;44.41;100407.31;4947207;28;114103;-62
2022/03/30 11:27:59;;;;;;;15.88;8.25;;;;;;;15.53;44.00;100406.03;4948316;28;114001;-62